sensor_id;sensor_type;location;lat;lon;timestamp;P1;durP1;ratioP1;P2;durP2;ratioP2
76552;SDS011;65395;53.168;18.156;2023-05-07T00:01:48;11.20;;;7.00;;
76552;SDS011;65395;53.168;18.156;2023-05-07T00:04:14;12.70;;;7.30;;
76552;SDS011;65395;53.168;18.156;2023-05-07T00:06:41;11.60;;;7.60;;
76552;SDS011;65395;53.168;18.156;2023-05-07T00:09:07;19.70;;;10.60;;
76552;SDS011;65395;53.168;18.156;2023-05-07T00:11:34;14.40;;;7.90;;
76552;SDS011;65395;53.168;18.156;2023-05-07T00:14:01;12.90;;;7.40;;
76552;SDS011;65395;53.168;18.156;2023-05-07T00:16:28;13.10;;;7.60;;
76552;SDS011;65395;53.168;18.156;2023-05-07T00:18:55;11.60;;;7.00;;
76552;SDS011;65395;53.168;18.156;2023-05-07T00:21:22;13.30;;;6.30;;
76552;SDS011;65395;53.168;18.156;2023-05-07T00:23:49;14.10;;;6.60;;
76552;SDS011;65395;53.168;18.156;2023-05-07T00:26:16;11.80;;;6.70;;
76552;SDS011;65395;53.168;18.156;2023-05-07T00:28:43;11.70;;;7.50;;
76552;SDS011;65395;53.168;18.156;2023-05-07T00:31:09;14.70;;;8.10;;
76552;SDS011;65395;53.168;18.156;2023-05-07T00:33:36;13.70;;;7.30;;
76552;SDS011;65395;53.168;18.156;2023-05-07T00:36:04;11.30;;;6.80;;
76552;SDS011;65395;53.168;18.156;2023-05-07T00:38:31;12.30;;;7.40;;
76552;SDS011;65395;53.168;18.156;2023-05-07T00:40:58;11.50;;;6.70;;
76552;SDS011;65395;53.168;18.156;2023-05-07T00:43:25;15.80;;;8.20;;
76552;SDS011;65395;53.168;18.156;2023-05-07T00:45:51;13.20;;;7.60;;
76552;SDS011;65395;53.168;18.156;2023-05-07T00:48:18;16.20;;;7.40;;
76552;SDS011;65395;53.168;18.156;2023-05-07T00:50:45;12.10;;;6.40;;
76552;SDS011;65395;53.168;18.156;2023-05-07T00:53:14;10.80;;;6.40;;
76552;SDS011;65395;53.168;18.156;2023-05-07T00:55:41;11.00;;;7.00;;
76552;SDS011;65395;53.168;18.156;2023-05-07T00:58:08;11.80;;;7.30;;
76552;SDS011;65395;53.168;18.156;2023-05-07T01:00:34;12.30;;;6.60;;
76552;SDS011;65395;53.168;18.156;2023-05-07T01:03:02;12.40;;;7.20;;
76552;SDS011;65395;53.168;18.156;2023-05-07T01:05:29;15.00;;;8.20;;
76552;SDS011;65395;53.168;18.156;2023-05-07T01:07:57;12.80;;;7.70;;
76552;SDS011;65395;53.168;18.156;2023-05-07T01:10:24;14.40;;;8.60;;
76552;SDS011;65395;53.168;18.156;2023-05-07T01:12:51;14.60;;;8.60;;
76552;SDS011;65395;53.168;18.156;2023-05-07T01:15:20;11.40;;;7.40;;
76552;SDS011;65395;53.168;18.156;2023-05-07T01:17:47;14.40;;;8.50;;
76552;SDS011;65395;53.168;18.156;2023-05-07T01:20:19;12.50;;;7.90;;
76552;SDS011;65395;53.168;18.156;2023-05-07T01:22:46;14.20;;;8.00;;
76552;SDS011;65395;53.168;18.156;2023-05-07T01:25:14;16.30;;;8.50;;
76552;SDS011;65395;53.168;18.156;2023-05-07T01:27:45;14.10;;;8.80;;
76552;SDS011;65395;53.168;18.156;2023-05-07T01:30:13;16.10;;;9.40;;
76552;SDS011;65395;53.168;18.156;2023-05-07T01:32:42;14.70;;;8.70;;
76552;SDS011;65395;53.168;18.156;2023-05-07T01:35:15;16.30;;;9.50;;
76552;SDS011;65395;53.168;18.156;2023-05-07T01:37:46;17.30;;;9.40;;
76552;SDS011;65395;53.168;18.156;2023-05-07T01:40:14;17.40;;;9.60;;
76552;SDS011;65395;53.168;18.156;2023-05-07T01:42:42;13.40;;;8.60;;
76552;SDS011;65395;53.168;18.156;2023-05-07T01:45:10;13.60;;;8.60;;
76552;SDS011;65395;53.168;18.156;2023-05-07T01:47:37;14.20;;;8.60;;
76552;SDS011;65395;53.168;18.156;2023-05-07T01:50:05;17.20;;;9.20;;
76552;SDS011;65395;53.168;18.156;2023-05-07T01:52:34;19.80;;;9.70;;
76552;SDS011;65395;53.168;18.156;2023-05-07T01:55:01;18.10;;;10.50;;
76552;SDS011;65395;53.168;18.156;2023-05-07T01:57:28;17.20;;;9.90;;
76552;SDS011;65395;53.168;18.156;2023-05-07T01:59:55;15.90;;;9.50;;
76552;SDS011;65395;53.168;18.156;2023-05-07T02:02:22;16.60;;;9.10;;
76552;SDS011;65395;53.168;18.156;2023-05-07T02:04:49;16.50;;;9.40;;
76552;SDS011;65395;53.168;18.156;2023-05-07T02:07:17;16.90;;;8.80;;
76552;SDS011;65395;53.168;18.156;2023-05-07T02:09:44;16.10;;;9.00;;
76552;SDS011;65395;53.168;18.156;2023-05-07T02:12:12;16.10;;;9.50;;
76552;SDS011;65395;53.168;18.156;2023-05-07T02:14:38;13.10;;;8.40;;
76552;SDS011;65395;53.168;18.156;2023-05-07T02:17:06;14.10;;;8.70;;
76552;SDS011;65395;53.168;18.156;2023-05-07T02:19:32;16.30;;;8.60;;
76552;SDS011;65395;53.168;18.156;2023-05-07T02:21:59;15.70;;;9.00;;
76552;SDS011;65395;53.168;18.156;2023-05-07T02:24:29;18.40;;;9.40;;
76552;SDS011;65395;53.168;18.156;2023-05-07T02:26:56;28.10;;;9.60;;
76552;SDS011;65395;53.168;18.156;2023-05-07T02:29:23;16.70;;;9.00;;
76552;SDS011;65395;53.168;18.156;2023-05-07T02:31:50;14.50;;;9.30;;
76552;SDS011;65395;53.168;18.156;2023-05-07T02:34:19;15.90;;;9.20;;
76552;SDS011;65395;53.168;18.156;2023-05-07T02:36:46;17.40;;;9.60;;
76552;SDS011;65395;53.168;18.156;2023-05-07T02:39:14;15.70;;;9.50;;
76552;SDS011;65395;53.168;18.156;2023-05-07T02:41:42;22.20;;;11.10;;
76552;SDS011;65395;53.168;18.156;2023-05-07T02:44:08;20.20;;;10.90;;
76552;SDS011;65395;53.168;18.156;2023-05-07T02:46:36;18.60;;;11.00;;
76552;SDS011;65395;53.168;18.156;2023-05-07T02:49:06;18.80;;;10.80;;
76552;SDS011;65395;53.168;18.156;2023-05-07T02:51:33;17.30;;;10.20;;
76552;SDS011;65395;53.168;18.156;2023-05-07T02:54:02;21.10;;;11.40;;
76552;SDS011;65395;53.168;18.156;2023-05-07T02:56:29;20.70;;;11.00;;
76552;SDS011;65395;53.168;18.156;2023-05-07T02:58:56;20.90;;;11.30;;
76552;SDS011;65395;53.168;18.156;2023-05-07T03:01:24;23.30;;;11.20;;
76552;SDS011;65395;53.168;18.156;2023-05-07T03:03:58;21.50;;;10.80;;
76552;SDS011;65395;53.168;18.156;2023-05-07T03:06:25;20.10;;;11.40;;
76552;SDS011;65395;53.168;18.156;2023-05-07T03:08:52;18.30;;;10.90;;
76552;SDS011;65395;53.168;18.156;2023-05-07T03:11:19;20.60;;;12.00;;
76552;SDS011;65395;53.168;18.156;2023-05-07T03:13:46;23.60;;;11.90;;
76552;SDS011;65395;53.168;18.156;2023-05-07T03:16:13;21.30;;;11.70;;
76552;SDS011;65395;53.168;18.156;2023-05-07T03:18:40;18.80;;;11.00;;
76552;SDS011;65395;53.168;18.156;2023-05-07T03:21:06;20.30;;;11.40;;
76552;SDS011;65395;53.168;18.156;2023-05-07T03:23:33;21.00;;;12.30;;
76552;SDS011;65395;53.168;18.156;2023-05-07T03:25:59;19.40;;;11.30;;
76552;SDS011;65395;53.168;18.156;2023-05-07T03:28:26;17.80;;;10.60;;
76552;SDS011;65395;53.168;18.156;2023-05-07T03:30:57;21.50;;;12.40;;
76552;SDS011;65395;53.168;18.156;2023-05-07T03:33:23;22.50;;;11.90;;
76552;SDS011;65395;53.168;18.156;2023-05-07T03:35:50;20.30;;;10.60;;
76552;SDS011;65395;53.168;18.156;2023-05-07T03:38:20;20.30;;;11.50;;
76552;SDS011;65395;53.168;18.156;2023-05-07T03:40:47;20.50;;;12.30;;
76552;SDS011;65395;53.168;18.156;2023-05-07T03:43:14;18.90;;;12.10;;
76552;SDS011;65395;53.168;18.156;2023-05-07T03:45:44;20.30;;;13.00;;
76552;SDS011;65395;53.168;18.156;2023-05-07T03:48:14;28.20;;;15.30;;
76552;SDS011;65395;53.168;18.156;2023-05-07T03:50:41;27.30;;;14.30;;
76552;SDS011;65395;53.168;18.156;2023-05-07T03:53:08;29.50;;;15.70;;
76552;SDS011;65395;53.168;18.156;2023-05-07T03:55:38;27.20;;;16.20;;
76552;SDS011;65395;53.168;18.156;2023-05-07T03:58:05;28.20;;;15.00;;
76552;SDS011;65395;53.168;18.156;2023-05-07T04:00:32;27.60;;;16.00;;
76552;SDS011;65395;53.168;18.156;2023-05-07T04:03:06;28.30;;;16.30;;
76552;SDS011;65395;53.168;18.156;2023-05-07T04:05:34;30.00;;;16.30;;
76552;SDS011;65395;53.168;18.156;2023-05-07T04:08:01;26.10;;;15.20;;
76552;SDS011;65395;53.168;18.156;2023-05-07T04:10:35;28.70;;;15.10;;
76552;SDS011;65395;53.168;18.156;2023-05-07T04:13:05;25.40;;;15.10;;
76552;SDS011;65395;53.168;18.156;2023-05-07T04:15:33;27.10;;;15.20;;
76552;SDS011;65395;53.168;18.156;2023-05-07T04:17:59;23.70;;;14.60;;
76552;SDS011;65395;53.168;18.156;2023-05-07T04:20:26;24.70;;;13.90;;
76552;SDS011;65395;53.168;18.156;2023-05-07T04:22:58;22.00;;;12.90;;
76552;SDS011;65395;53.168;18.156;2023-05-07T04:25:25;21.80;;;13.10;;
76552;SDS011;65395;53.168;18.156;2023-05-07T04:27:55;25.10;;;14.90;;
76552;SDS011;65395;53.168;18.156;2023-05-07T04:30:22;23.40;;;14.10;;
76552;SDS011;65395;53.168;18.156;2023-05-07T04:32:49;21.10;;;13.40;;
76552;SDS011;65395;53.168;18.156;2023-05-07T04:35:15;22.60;;;13.70;;
76552;SDS011;65395;53.168;18.156;2023-05-07T04:37:43;21.20;;;13.20;;
76552;SDS011;65395;53.168;18.156;2023-05-07T04:40:10;21.90;;;13.40;;
76552;SDS011;65395;53.168;18.156;2023-05-07T04:42:37;21.10;;;12.20;;
76552;SDS011;65395;53.168;18.156;2023-05-07T04:45:04;25.10;;;13.10;;
76552;SDS011;65395;53.168;18.156;2023-05-07T04:47:32;20.90;;;12.90;;
76552;SDS011;65395;53.168;18.156;2023-05-07T04:50:01;24.30;;;12.80;;
76552;SDS011;65395;53.168;18.156;2023-05-07T04:52:28;23.10;;;13.30;;
76552;SDS011;65395;53.168;18.156;2023-05-07T04:54:55;21.50;;;12.90;;
76552;SDS011;65395;53.168;18.156;2023-05-07T04:57:22;20.60;;;12.40;;
76552;SDS011;65395;53.168;18.156;2023-05-07T04:59:49;20.10;;;12.20;;
76552;SDS011;65395;53.168;18.156;2023-05-07T05:02:16;21.30;;;11.90;;
76552;SDS011;65395;53.168;18.156;2023-05-07T05:04:43;24.60;;;13.40;;
76552;SDS011;65395;53.168;18.156;2023-05-07T05:07:09;21.30;;;12.50;;
76552;SDS011;65395;53.168;18.156;2023-05-07T05:09:36;23.10;;;12.80;;
76552;SDS011;65395;53.168;18.156;2023-05-07T05:12:03;19.90;;;12.20;;
76552;SDS011;65395;53.168;18.156;2023-05-07T05:14:33;18.70;;;12.20;;
76552;SDS011;65395;53.168;18.156;2023-05-07T05:17:00;19.80;;;12.10;;
76552;SDS011;65395;53.168;18.156;2023-05-07T05:19:27;19.60;;;11.80;;
76552;SDS011;65395;53.168;18.156;2023-05-07T05:21:55;19.70;;;11.40;;
76552;SDS011;65395;53.168;18.156;2023-05-07T05:24:22;19.50;;;11.40;;
76552;SDS011;65395;53.168;18.156;2023-05-07T05:26:49;19.70;;;11.20;;
76552;SDS011;65395;53.168;18.156;2023-05-07T05:29:16;19.30;;;11.00;;
76552;SDS011;65395;53.168;18.156;2023-05-07T05:31:42;16.70;;;10.20;;
76552;SDS011;65395;53.168;18.156;2023-05-07T05:34:10;18.80;;;10.40;;
76552;SDS011;65395;53.168;18.156;2023-05-07T05:36:36;18.40;;;10.50;;
76552;SDS011;65395;53.168;18.156;2023-05-07T05:39:03;17.90;;;10.10;;
76552;SDS011;65395;53.168;18.156;2023-05-07T05:41:30;17.60;;;10.60;;
76552;SDS011;65395;53.168;18.156;2023-05-07T05:43:57;17.20;;;9.80;;
76552;SDS011;65395;53.168;18.156;2023-05-07T05:46:25;16.20;;;10.10;;
76552;SDS011;65395;53.168;18.156;2023-05-07T05:48:52;17.10;;;10.50;;
76552;SDS011;65395;53.168;18.156;2023-05-07T05:51:18;18.40;;;10.70;;
76552;SDS011;65395;53.168;18.156;2023-05-07T05:53:45;19.00;;;10.50;;
76552;SDS011;65395;53.168;18.156;2023-05-07T05:56:12;20.10;;;12.00;;
76552;SDS011;65395;53.168;18.156;2023-05-07T05:58:40;18.20;;;10.90;;
76552;SDS011;65395;53.168;18.156;2023-05-07T06:01:07;18.40;;;10.80;;
76552;SDS011;65395;53.168;18.156;2023-05-07T06:03:36;21.10;;;11.70;;
76552;SDS011;65395;53.168;18.156;2023-05-07T06:06:05;20.00;;;11.20;;
76552;SDS011;65395;53.168;18.156;2023-05-07T06:08:32;19.10;;;11.10;;
76552;SDS011;65395;53.168;18.156;2023-05-07T06:10:59;17.80;;;10.90;;
76552;SDS011;65395;53.168;18.156;2023-05-07T06:13:29;18.90;;;10.20;;
76552;SDS011;65395;53.168;18.156;2023-05-07T06:15:56;21.10;;;9.80;;
76552;SDS011;65395;53.168;18.156;2023-05-07T06:18:23;16.20;;;10.00;;
76552;SDS011;65395;53.168;18.156;2023-05-07T06:20:51;18.10;;;9.40;;
76552;SDS011;65395;53.168;18.156;2023-05-07T06:23:23;16.30;;;9.00;;
76552;SDS011;65395;53.168;18.156;2023-05-07T06:25:50;20.10;;;8.90;;
76552;SDS011;65395;53.168;18.156;2023-05-07T06:28:18;17.60;;;8.90;;
76552;SDS011;65395;53.168;18.156;2023-05-07T06:30:45;14.70;;;9.40;;
76552;SDS011;65395;53.168;18.156;2023-05-07T06:33:12;14.80;;;9.30;;
76552;SDS011;65395;53.168;18.156;2023-05-07T06:35:39;13.80;;;8.40;;
76552;SDS011;65395;53.168;18.156;2023-05-07T06:38:06;13.10;;;8.30;;
76552;SDS011;65395;53.168;18.156;2023-05-07T06:40:33;13.50;;;8.50;;
76552;SDS011;65395;53.168;18.156;2023-05-07T06:42:59;13.60;;;7.70;;
76552;SDS011;65395;53.168;18.156;2023-05-07T06:45:46;14.70;;;7.70;;
76552;SDS011;65395;53.168;18.156;2023-05-07T06:48:13;12.50;;;7.30;;
76552;SDS011;65395;53.168;18.156;2023-05-07T06:50:47;15.50;;;7.50;;
76552;SDS011;65395;53.168;18.156;2023-05-07T06:53:14;11.30;;;7.10;;
76552;SDS011;65395;53.168;18.156;2023-05-07T06:55:40;10.70;;;6.80;;
76552;SDS011;65395;53.168;18.156;2023-05-07T06:58:08;11.00;;;6.60;;
76552;SDS011;65395;53.168;18.156;2023-05-07T07:00:35;13.30;;;6.80;;
76552;SDS011;65395;53.168;18.156;2023-05-07T07:03:02;11.00;;;6.50;;
76552;SDS011;65395;53.168;18.156;2023-05-07T07:05:30;11.20;;;6.30;;
76552;SDS011;65395;53.168;18.156;2023-05-07T07:07:56;12.30;;;7.10;;
76552;SDS011;65395;53.168;18.156;2023-05-07T07:10:23;11.80;;;6.60;;
76552;SDS011;65395;53.168;18.156;2023-05-07T07:12:51;8.90;;;6.10;;
76552;SDS011;65395;53.168;18.156;2023-05-07T07:15:19;11.70;;;5.70;;
76552;SDS011;65395;53.168;18.156;2023-05-07T07:17:48;12.00;;;6.30;;
76552;SDS011;65395;53.168;18.156;2023-05-07T07:20:15;10.40;;;6.00;;
76552;SDS011;65395;53.168;18.156;2023-05-07T07:22:43;6.60;;;4.50;;
76552;SDS011;65395;53.168;18.156;2023-05-07T07:25:13;7.60;;;4.40;;
76552;SDS011;65395;53.168;18.156;2023-05-07T07:27:39;8.20;;;4.40;;
76552;SDS011;65395;53.168;18.156;2023-05-07T07:30:07;7.10;;;4.50;;
76552;SDS011;65395;53.168;18.156;2023-05-07T07:32:36;10.20;;;4.40;;
76552;SDS011;65395;53.168;18.156;2023-05-07T07:35:04;6.20;;;3.80;;
76552;SDS011;65395;53.168;18.156;2023-05-07T07:37:32;7.70;;;4.30;;
76552;SDS011;65395;53.168;18.156;2023-05-07T07:39:59;6.40;;;3.80;;
76552;SDS011;65395;53.168;18.156;2023-05-07T07:42:26;4.80;;;3.50;;
76552;SDS011;65395;53.168;18.156;2023-05-07T07:44:53;5.00;;;3.80;;
76552;SDS011;65395;53.168;18.156;2023-05-07T07:47:21;8.20;;;3.70;;
76552;SDS011;65395;53.168;18.156;2023-05-07T07:49:48;6.10;;;3.60;;
76552;SDS011;65395;53.168;18.156;2023-05-07T07:52:16;8.50;;;3.50;;
76552;SDS011;65395;53.168;18.156;2023-05-07T07:54:44;6.00;;;3.50;;
76552;SDS011;65395;53.168;18.156;2023-05-07T07:57:11;5.60;;;3.50;;
76552;SDS011;65395;53.168;18.156;2023-05-07T07:59:38;5.50;;;3.00;;
76552;SDS011;65395;53.168;18.156;2023-05-07T08:02:06;6.80;;;2.80;;
76552;SDS011;65395;53.168;18.156;2023-05-07T08:04:37;5.90;;;3.30;;
76552;SDS011;65395;53.168;18.156;2023-05-07T08:07:04;6.10;;;3.00;;
76552;SDS011;65395;53.168;18.156;2023-05-07T08:09:33;8.20;;;3.30;;
76552;SDS011;65395;53.168;18.156;2023-05-07T08:12:00;5.60;;;3.20;;
76552;SDS011;65395;53.168;18.156;2023-05-07T08:14:29;5.50;;;3.10;;
76552;SDS011;65395;53.168;18.156;2023-05-07T08:16:56;7.00;;;3.50;;
76552;SDS011;65395;53.168;18.156;2023-05-07T08:19:23;4.90;;;3.20;;
76552;SDS011;65395;53.168;18.156;2023-05-07T08:21:51;6.90;;;3.00;;
76552;SDS011;65395;53.168;18.156;2023-05-07T08:24:18;7.10;;;2.70;;
76552;SDS011;65395;53.168;18.156;2023-05-07T08:26:45;5.60;;;2.90;;
76552;SDS011;65395;53.168;18.156;2023-05-07T08:29:12;4.30;;;2.80;;
76552;SDS011;65395;53.168;18.156;2023-05-07T08:31:39;4.30;;;2.80;;
76552;SDS011;65395;53.168;18.156;2023-05-07T08:34:06;7.30;;;2.70;;
76552;SDS011;65395;53.168;18.156;2023-05-07T08:36:33;4.00;;;2.50;;
76552;SDS011;65395;53.168;18.156;2023-05-07T08:39:00;4.80;;;2.80;;
76552;SDS011;65395;53.168;18.156;2023-05-07T08:41:27;4.40;;;2.70;;
76552;SDS011;65395;53.168;18.156;2023-05-07T08:43:57;4.40;;;2.80;;
76552;SDS011;65395;53.168;18.156;2023-05-07T08:46:26;4.10;;;2.70;;
76552;SDS011;65395;53.168;18.156;2023-05-07T08:48:58;6.00;;;2.60;;
76552;SDS011;65395;53.168;18.156;2023-05-07T08:51:26;5.50;;;2.80;;
76552;SDS011;65395;53.168;18.156;2023-05-07T08:53:53;4.40;;;2.20;;
76552;SDS011;65395;53.168;18.156;2023-05-07T08:56:24;4.50;;;2.20;;
76552;SDS011;65395;53.168;18.156;2023-05-07T08:58:52;3.00;;;2.30;;
76552;SDS011;65395;53.168;18.156;2023-05-07T09:01:23;5.70;;;2.50;;
76552;SDS011;65395;53.168;18.156;2023-05-07T09:03:51;4.10;;;2.50;;
76552;SDS011;65395;53.168;18.156;2023-05-07T09:06:20;5.60;;;2.70;;
76552;SDS011;65395;53.168;18.156;2023-05-07T09:08:49;4.10;;;2.50;;
76552;SDS011;65395;53.168;18.156;2023-05-07T09:11:20;5.60;;;3.00;;
76552;SDS011;65395;53.168;18.156;2023-05-07T09:13:53;4.40;;;2.80;;
76552;SDS011;65395;53.168;18.156;2023-05-07T09:16:22;6.90;;;3.10;;
76552;SDS011;65395;53.168;18.156;2023-05-07T09:18:51;6.70;;;3.10;;
76552;SDS011;65395;53.168;18.156;2023-05-07T09:21:19;5.80;;;3.00;;
76552;SDS011;65395;53.168;18.156;2023-05-07T09:23:55;4.50;;;3.00;;
76552;SDS011;65395;53.168;18.156;2023-05-07T09:26:26;7.80;;;3.20;;
76552;SDS011;65395;53.168;18.156;2023-05-07T09:28:54;6.50;;;3.20;;
76552;SDS011;65395;53.168;18.156;2023-05-07T09:31:21;5.50;;;3.30;;
76552;SDS011;65395;53.168;18.156;2023-05-07T09:33:49;6.60;;;3.60;;
76552;SDS011;65395;53.168;18.156;2023-05-07T09:36:17;6.10;;;3.10;;
76552;SDS011;65395;53.168;18.156;2023-05-07T09:38:44;5.50;;;3.20;;
76552;SDS011;65395;53.168;18.156;2023-05-07T09:41:12;6.40;;;3.60;;
76552;SDS011;65395;53.168;18.156;2023-05-07T09:43:58;6.20;;;3.50;;
76552;SDS011;65395;53.168;18.156;2023-05-07T09:46:30;5.80;;;3.70;;
76552;SDS011;65395;53.168;18.156;2023-05-07T09:49:01;6.80;;;3.60;;
76552;SDS011;65395;53.168;18.156;2023-05-07T09:51:33;4.80;;;3.80;;
76552;SDS011;65395;53.168;18.156;2023-05-07T09:54:08;5.30;;;3.50;;
76552;SDS011;65395;53.168;18.156;2023-05-07T09:56:36;6.70;;;3.50;;
76552;SDS011;65395;53.168;18.156;2023-05-07T09:59:08;5.40;;;3.30;;
76552;SDS011;65395;53.168;18.156;2023-05-07T10:01:41;5.60;;;3.40;;
76552;SDS011;65395;53.168;18.156;2023-05-07T10:04:09;8.80;;;3.40;;
76552;SDS011;65395;53.168;18.156;2023-05-07T10:06:37;6.10;;;4.00;;
76552;SDS011;65395;53.168;18.156;2023-05-07T10:09:05;4.90;;;3.10;;
76552;SDS011;65395;53.168;18.156;2023-05-07T10:11:33;4.40;;;3.20;;
76552;SDS011;65395;53.168;18.156;2023-05-07T10:14:02;5.90;;;3.50;;
76552;SDS011;65395;53.168;18.156;2023-05-07T10:16:33;4.70;;;3.30;;
76552;SDS011;65395;53.168;18.156;2023-05-07T10:19:03;5.00;;;3.30;;
76552;SDS011;65395;53.168;18.156;2023-05-07T10:21:34;4.70;;;3.30;;
76552;SDS011;65395;53.168;18.156;2023-05-07T10:24:12;6.90;;;3.50;;
76552;SDS011;65395;53.168;18.156;2023-05-07T10:26:47;9.00;;;4.00;;
76552;SDS011;65395;53.168;18.156;2023-05-07T10:29:18;6.70;;;3.70;;
76552;SDS011;65395;53.168;18.156;2023-05-07T10:31:59;5.80;;;3.60;;
76552;SDS011;65395;53.168;18.156;2023-05-07T10:34:43;5.00;;;2.70;;
76552;SDS011;65395;53.168;18.156;2023-05-07T10:37:13;8.50;;;3.10;;
76552;SDS011;65395;53.168;18.156;2023-05-07T10:39:41;5.80;;;3.20;;
76552;SDS011;65395;53.168;18.156;2023-05-07T10:42:10;5.40;;;3.40;;
76552;SDS011;65395;53.168;18.156;2023-05-07T10:44:39;5.80;;;3.10;;
76552;SDS011;65395;53.168;18.156;2023-05-07T10:47:11;4.50;;;3.30;;
76552;SDS011;65395;53.168;18.156;2023-05-07T10:53:10;6.60;;;3.20;;
76552;SDS011;65395;53.168;18.156;2023-05-07T10:59:29;4.30;;;3.20;;
76552;SDS011;65395;53.168;18.156;2023-05-07T11:02:18;5.40;;;3.00;;
76552;SDS011;65395;53.168;18.156;2023-05-07T11:07:43;6.00;;;2.80;;
76552;SDS011;65395;53.168;18.156;2023-05-07T11:10:22;4.50;;;3.20;;
76552;SDS011;65395;53.168;18.156;2023-05-07T11:12:56;5.20;;;2.70;;
76552;SDS011;65395;53.168;18.156;2023-05-07T11:15:36;5.40;;;3.10;;
76552;SDS011;65395;53.168;18.156;2023-05-07T11:18:11;4.60;;;3.00;;
76552;SDS011;65395;53.168;18.156;2023-05-07T11:20:47;5.40;;;3.10;;
76552;SDS011;65395;53.168;18.156;2023-05-07T11:26:29;4.40;;;3.10;;
76552;SDS011;65395;53.168;18.156;2023-05-07T11:28:58;3.80;;;2.50;;
76552;SDS011;65395;53.168;18.156;2023-05-07T11:31:27;4.80;;;2.70;;
76552;SDS011;65395;53.168;18.156;2023-05-07T11:33:56;5.30;;;3.10;;
76552;SDS011;65395;53.168;18.156;2023-05-07T11:36:24;3.10;;;2.60;;
76552;SDS011;65395;53.168;18.156;2023-05-07T11:38:53;4.80;;;3.00;;
76552;SDS011;65395;53.168;18.156;2023-05-07T11:41:20;3.80;;;2.60;;
76552;SDS011;65395;53.168;18.156;2023-05-07T11:43:56;5.60;;;2.80;;
76552;SDS011;65395;53.168;18.156;2023-05-07T11:46:23;4.40;;;2.70;;
76552;SDS011;65395;53.168;18.156;2023-05-07T11:48:50;3.50;;;2.80;;
76552;SDS011;65395;53.168;18.156;2023-05-07T11:51:19;5.40;;;2.60;;
76552;SDS011;65395;53.168;18.156;2023-05-07T11:53:48;3.40;;;2.50;;
76552;SDS011;65395;53.168;18.156;2023-05-07T11:56:16;4.90;;;2.40;;
76552;SDS011;65395;53.168;18.156;2023-05-07T11:58:45;8.90;;;3.30;;
76552;SDS011;65395;53.168;18.156;2023-05-07T12:01:13;5.40;;;3.10;;
76552;SDS011;65395;53.168;18.156;2023-05-07T12:03:41;5.00;;;3.20;;
76552;SDS011;65395;53.168;18.156;2023-05-07T12:06:10;3.50;;;2.90;;
76552;SDS011;65395;53.168;18.156;2023-05-07T12:08:38;7.10;;;3.00;;
76552;SDS011;65395;53.168;18.156;2023-05-07T12:11:07;5.30;;;3.30;;
76552;SDS011;65395;53.168;18.156;2023-05-07T12:13:54;4.10;;;3.00;;
76552;SDS011;65395;53.168;18.156;2023-05-07T12:16:22;4.30;;;2.80;;
76552;SDS011;65395;53.168;18.156;2023-05-07T12:18:49;4.10;;;2.90;;
76552;SDS011;65395;53.168;18.156;2023-05-07T12:21:19;6.30;;;3.10;;
76552;SDS011;65395;53.168;18.156;2023-05-07T12:23:46;3.70;;;3.20;;
76552;SDS011;65395;53.168;18.156;2023-05-07T12:26:14;3.60;;;3.00;;
76552;SDS011;65395;53.168;18.156;2023-05-07T12:28:40;5.70;;;3.30;;
76552;SDS011;65395;53.168;18.156;2023-05-07T12:31:07;5.40;;;3.20;;
76552;SDS011;65395;53.168;18.156;2023-05-07T12:33:35;4.70;;;2.60;;
76552;SDS011;65395;53.168;18.156;2023-05-07T12:36:03;4.10;;;2.70;;
76552;SDS011;65395;53.168;18.156;2023-05-07T12:38:34;5.70;;;2.70;;
76552;SDS011;65395;53.168;18.156;2023-05-07T12:41:03;6.20;;;2.90;;
76552;SDS011;65395;53.168;18.156;2023-05-07T12:43:30;4.10;;;2.80;;
76552;SDS011;65395;53.168;18.156;2023-05-07T12:45:59;4.90;;;2.90;;
76552;SDS011;65395;53.168;18.156;2023-05-07T12:48:27;6.40;;;2.80;;
76552;SDS011;65395;53.168;18.156;2023-05-07T12:50:54;4.90;;;2.80;;
76552;SDS011;65395;53.168;18.156;2023-05-07T12:53:23;3.80;;;2.50;;
76552;SDS011;65395;53.168;18.156;2023-05-07T12:55:53;4.50;;;2.60;;
76552;SDS011;65395;53.168;18.156;2023-05-07T12:58:29;6.20;;;2.50;;
76552;SDS011;65395;53.168;18.156;2023-05-07T13:00:59;7.10;;;2.70;;
76552;SDS011;65395;53.168;18.156;2023-05-07T13:03:28;3.10;;;2.30;;
76552;SDS011;65395;53.168;18.156;2023-05-07T13:05:58;7.70;;;2.70;;
76552;SDS011;65395;53.168;18.156;2023-05-07T13:11:08;3.60;;;2.60;;
76552;SDS011;65395;53.168;18.156;2023-05-07T13:13:37;3.20;;;2.30;;
76552;SDS011;65395;53.168;18.156;2023-05-07T13:16:05;5.50;;;2.60;;
76552;SDS011;65395;53.168;18.156;2023-05-07T13:18:34;3.10;;;2.50;;
76552;SDS011;65395;53.168;18.156;2023-05-07T13:21:01;3.40;;;2.80;;
76552;SDS011;65395;53.168;18.156;2023-05-07T13:23:28;5.10;;;3.10;;
76552;SDS011;65395;53.168;18.156;2023-05-07T13:25:55;4.20;;;2.70;;
76552;SDS011;65395;53.168;18.156;2023-05-07T13:28:24;3.10;;;2.60;;
76552;SDS011;65395;53.168;18.156;2023-05-07T13:30:52;4.80;;;2.40;;
76552;SDS011;65395;53.168;18.156;2023-05-07T13:33:19;4.50;;;2.60;;
76552;SDS011;65395;53.168;18.156;2023-05-07T13:35:46;3.70;;;2.70;;
76552;SDS011;65395;53.168;18.156;2023-05-07T13:38:12;4.20;;;3.10;;
76552;SDS011;65395;53.168;18.156;2023-05-07T13:40:39;4.10;;;3.10;;
76552;SDS011;65395;53.168;18.156;2023-05-07T13:43:06;4.00;;;2.50;;
76552;SDS011;65395;53.168;18.156;2023-05-07T13:45:33;4.90;;;2.60;;
76552;SDS011;65395;53.168;18.156;2023-05-07T13:48:00;5.20;;;2.60;;
76552;SDS011;65395;53.168;18.156;2023-05-07T13:50:26;4.00;;;2.70;;
76552;SDS011;65395;53.168;18.156;2023-05-07T13:52:55;5.70;;;2.60;;
76552;SDS011;65395;53.168;18.156;2023-05-07T13:55:23;4.90;;;2.60;;
76552;SDS011;65395;53.168;18.156;2023-05-07T13:57:58;4.40;;;2.30;;
76552;SDS011;65395;53.168;18.156;2023-05-07T14:00:26;3.80;;;2.60;;
76552;SDS011;65395;53.168;18.156;2023-05-07T14:02:54;4.40;;;2.60;;
76552;SDS011;65395;53.168;18.156;2023-05-07T14:05:22;5.80;;;2.90;;
76552;SDS011;65395;53.168;18.156;2023-05-07T14:07:50;4.30;;;2.40;;
76552;SDS011;65395;53.168;18.156;2023-05-07T14:10:18;3.60;;;2.70;;
76552;SDS011;65395;53.168;18.156;2023-05-07T14:12:46;3.80;;;2.50;;
76552;SDS011;65395;53.168;18.156;2023-05-07T14:15:13;5.70;;;3.10;;
76552;SDS011;65395;53.168;18.156;2023-05-07T14:17:41;4.30;;;2.60;;
76552;SDS011;65395;53.168;18.156;2023-05-07T14:20:09;4.80;;;2.80;;
76552;SDS011;65395;53.168;18.156;2023-05-07T14:22:36;2.90;;;2.60;;
76552;SDS011;65395;53.168;18.156;2023-05-07T14:25:03;4.30;;;2.80;;
76552;SDS011;65395;53.168;18.156;2023-05-07T14:27:31;6.20;;;3.00;;
76552;SDS011;65395;53.168;18.156;2023-05-07T14:29:58;5.90;;;2.70;;
76552;SDS011;65395;53.168;18.156;2023-05-07T14:32:24;3.60;;;2.50;;
76552;SDS011;65395;53.168;18.156;2023-05-07T14:34:51;4.20;;;2.60;;
76552;SDS011;65395;53.168;18.156;2023-05-07T14:37:18;3.70;;;2.90;;
76552;SDS011;65395;53.168;18.156;2023-05-07T14:39:46;5.20;;;2.70;;
76552;SDS011;65395;53.168;18.156;2023-05-07T14:42:13;4.50;;;2.80;;
76552;SDS011;65395;53.168;18.156;2023-05-07T14:44:39;3.00;;;2.70;;
76552;SDS011;65395;53.168;18.156;2023-05-07T14:47:08;3.50;;;2.30;;